Time;durP1;ratioP1;P1;durP2;ratioP2;P2;SDS_P1;SDS_P2;PMS_P1;PMS_P2;Temp;Humidity;BMP_temperature;BMP_pressure;BME280_temperature;BME280_humidity;BME280_pressure;Samples;Min_cycle;Max_cycle;Signal;HPM_P1;HPM_P2
2021/04/15 00:00:55;;;;;;;10.60;9.50;;;;;;;5.02;62.26;102641.44;5018861;28;20179;-71
2021/04/15 00:03:24;;;;;;;11.97;9.57;;;;;;;4.91;62.53;102634.66;5018877;28;20417;-71
2021/04/15 00:05:49;;;;;;;11.27;9.43;;;;;;;5.02;61.75;102633.66;5018739;28;20517;-70
2021/04/15 00:08:16;;;;;;;11.73;10.10;;;;;;;5.00;60.82;102636.94;5019273;28;20436;-73
2021/04/15 00:10:47;;;;;;;10.10;9.10;;;;;;;4.94;62.32;102644.31;5020733;28;20277;-72
2021/04/15 00:13:15;;;;;;;12.33;10.00;;;;;;;4.94;61.94;102632.28;5020359;28;20850;-68
2021/04/15 00:15:41;;;;;;;11.73;9.67;;;;;;;4.76;61.92;102633.69;5019192;28;20418;-68
2021/04/15 00:18:06;;;;;;;11.43;9.53;;;;;;;4.93;61.96;102630.50;5018580;28;20484;-68
2021/04/15 00:20:32;;;;;;;13.37;10.57;;;;;;;4.74;62.52;102624.97;5018432;28;20229;-69
2021/04/15 00:22:57;;;;;;;11.17;8.90;;;;;;;4.79;62.01;102629.63;5019177;28;20182;-68
2021/04/15 00:25:23;;;;;;;12.73;8.43;;;;;;;4.58;62.73;102634.31;5018970;28;20238;-67
2021/04/15 00:27:48;;;;;;;13.23;9.10;;;;;;;4.56;62.84;102633.31;5019785;28;20183;-69
2021/04/15 00:30:15;;;;;;;13.00;8.97;;;;;;;4.88;62.72;102631.88;5021537;28;20516;-68
2021/04/15 00:32:40;;;;;;;10.47;9.20;;;;;;;4.91;61.52;102626.03;5019092;28;20179;-68
2021/04/15 00:35:06;;;;;;;10.23;9.20;;;;;;;4.75;61.49;102630.22;5018632;28;20686;-68
2021/04/15 00:37:32;;;;;;;10.40;9.27;;;;;;;4.95;61.74;102633.19;5018773;28;20301;-69
2021/04/15 00:39:57;;;;;;;9.43;8.40;;;;;;;4.74;61.72;102631.03;5018683;28;20764;-71
2021/04/15 00:42:22;;;;;;;11.30;9.20;;;;;;;4.53;62.59;102633.09;5018660;28;20181;-68
2021/04/15 00:44:49;;;;;;;12.73;9.50;;;;;;;4.80;62.11;102626.22;5019386;28;20183;-69
2021/04/15 00:47:22;;;;;;;11.73;9.80;;;;;;;4.60;63.28;102639.56;5020479;28;20178;-69
2021/04/15 00:49:53;;;;;;;13.63;9.00;;;;;;;4.66;62.59;102630.53;5020078;28;20410;-68
2021/04/15 00:52:21;;;;;;;10.37;8.93;;;;;;;4.64;62.75;102632.13;5018252;28;20414;-68
2021/04/15 00:54:56;;;;;;;10.57;9.47;;;;;;;4.75;62.35;102634.50;5017681;28;20417;-69
2021/04/15 00:57:27;;;;;;;12.50;10.27;;;;;;;4.67;62.21;102632.31;5019109;28;20591;-69
2021/04/15 00:59:54;;;;;;;10.83;9.73;;;;;;;4.64;62.98;102633.78;5018454;28;20410;-69
2021/04/15 01:02:22;;;;;;;11.53;10.40;;;;;;;4.72;62.15;102638.69;5019528;28;20418;-70
2021/04/15 01:04:52;;;;;;;17.53;10.23;;;;;;;4.63;62.23;102638.09;5020082;28;20668;-69
2021/04/15 01:07:17;;;;;;;17.57;13.30;;;;;;;4.73;61.39;102636.97;5019563;28;20675;-69
2021/04/15 01:09:45;;;;;;;11.40;9.53;;;;;;;4.63;62.00;102640.66;5019074;28;20418;-69
2021/04/15 01:12:22;;;;;;;11.27;9.53;;;;;;;4.70;62.35;102639.38;5018286;28;20167;-68
2021/04/15 01:14:58;;;;;;;11.10;9.87;;;;;;;4.78;61.35;102629.53;5017848;28;20449;-69
2021/04/15 01:17:49;;;;;;;9.77;8.80;;;;;;;4.64;61.94;102638.97;5017480;28;20473;-69
2021/04/15 01:20:49;;;;;;;9.63;8.63;;;;;;;4.52;62.17;102631.34;5017152;28;20488;-69
2021/04/15 01:23:25;;;;;;;10.90;9.30;;;;;;;4.60;61.60;102629.22;5017391;28;20433;-68
2021/04/15 01:26:09;;;;;;;13.17;9.47;;;;;;;4.79;61.31;102626.13;5018102;28;20521;-69
2021/04/15 01:28:57;;;;;;;9.43;8.20;;;;;;;4.52;61.91;102626.19;5018022;28;20410;-68
2021/04/15 01:31:43;;;;;;;11.40;8.53;;;;;;;4.64;61.23;102626.97;5017869;28;20659;-69
2021/04/15 01:34:35;;;;;;;11.63;9.80;;;;;;;4.69;61.33;102629.81;5017068;28;20425;-68
2021/04/15 01:37:08;;;;;;;9.77;8.77;;;;;;;4.73;61.09;102626.63;5017295;28;20500;-69
2021/04/15 01:39:39;;;;;;;12.23;8.83;;;;;;;4.58;61.48;102630.84;5017329;28;20866;-69
2021/04/15 01:42:09;;;;;;;10.10;8.77;;;;;;;4.55;61.36;102632.41;5017005;28;20426;-69
2021/04/15 01:44:44;;;;;;;9.70;8.50;;;;;;;4.76;61.08;102636.28;5000781;28;20422;-68
2021/04/15 01:47:13;;;;;;;13.00;9.60;;;;;;;4.63;60.84;102632.91;5000650;28;20807;-69
2021/04/15 01:49:41;;;;;;;14.97;10.10;;;;;;;4.29;62.50;102635.88;5016725;28;20448;-68
2021/04/15 01:52:11;;;;;;;13.70;10.30;;;;;;;4.45;61.20;102632.63;5017635;28;20432;-69
2021/04/15 01:54:41;;;;;;;11.30;8.83;;;;;;;4.66;61.27;102637.38;5017203;28;20417;-69
2021/04/15 01:57:13;;;;;;;11.20;10.10;;;;;;;4.61;61.49;102638.78;5016845;28;20473;-69
2021/04/15 01:59:42;;;;;;;11.00;9.67;;;;;;;4.53;61.67;102640.84;5017597;28;20414;-69
2021/04/15 02:02:12;;;;;;;12.57;9.60;;;;;;;4.56;61.32;102638.50;5000623;28;20428;-68
2021/04/15 02:04:42;;;;;;;11.77;10.30;;;;;;;4.45;61.92;102639.47;5017375;28;20492;-68
2021/04/15 02:07:11;;;;;;;14.40;9.80;;;;;;;4.30;61.75;102640.28;5021792;28;20418;-68
2021/04/15 02:09:41;;;;;;;14.63;10.07;;;;;;;4.35;62.52;102637.97;5025090;28;20433;-68
2021/04/15 02:12:11;;;;;;;12.03;10.70;;;;;;;4.33;62.13;102644.72;5020501;28;20433;-68
2021/04/15 02:14:38;;;;;;;11.30;9.53;;;;;;;4.29;62.28;102648.81;5020314;28;20441;-68
2021/04/15 02:17:05;;;;;;;11.93;10.00;;;;;;;3.99;63.47;102647.63;5020228;28;20708;-69
2021/04/15 02:19:38;;;;;;;12.97;10.03;;;;;;;4.55;61.76;102640.16;5003814;28;20425;-68
2021/04/15 02:22:12;;;;;;;12.97;10.20;;;;;;;4.48;61.62;102638.00;5020130;28;20426;-68
2021/04/15 02:25:08;;;;;;;11.33;9.70;;;;;;;4.50;61.44;102638.06;5020631;28;20476;-70
2021/04/15 02:27:38;;;;;;;11.80;10.50;;;;;;;4.44;61.82;102642.84;5020136;28;20512;-68
2021/04/15 02:30:33;;;;;;;13.50;11.10;;;;;;;4.40;61.53;102639.19;5019906;28;20425;-69
2021/04/15 02:33:00;;;;;;;12.87;10.60;;;;;;;4.37;61.86;102634.69;4978934;28;20480;-69
2021/04/15 02:35:40;;;;;;;11.70;10.30;;;;;;;4.30;61.61;102641.94;5020010;28;20529;-69
2021/04/15 02:38:06;;;;;;;12.40;9.93;;;;;;;4.24;62.51;102646.72;5019534;28;20575;-68
2021/04/15 02:40:36;;;;;;;13.00;10.60;;;;;;;4.34;62.44;102647.41;5019618;28;20439;-68
2021/04/15 02:43:11;;;;;;;12.60;10.40;;;;;;;4.23;62.95;102648.38;5003563;28;20211;-68
2021/04/15 02:45:40;;;;;;;14.50;10.40;;;;;;;4.31;61.50;102646.31;5003486;28;20684;-68
2021/04/15 02:48:21;;;;;;;11.87;9.83;;;;;;;4.27;61.68;102649.50;5003626;28;20465;-69
2021/04/15 02:50:47;;;;;;;11.53;10.00;;;;;;;4.37;61.92;102650.19;5019602;28;20795;-68
2021/04/15 02:53:18;;;;;;;11.47;10.27;;;;;;;4.05;63.13;102648.94;5019944;28;20509;-69
2021/04/15 02:55:59;;;;;;;11.13;10.03;;;;;;;3.94;62.63;102654.16;5019733;28;20179;-69
2021/04/15 02:58:33;;;;;;;13.10;10.60;;;;;;;4.17;62.11;102646.28;5003061;28;20469;-68
2021/04/15 03:00:59;;;;;;;14.63;10.70;;;;;;;4.25;61.86;102651.06;5019380;28;20418;-68
2021/04/15 03:03:29;;;;;;;13.63;10.10;;;;;;;4.48;60.61;102647.41;5020022;28;20429;-68
2021/04/15 03:06:00;;;;;;;11.17;9.33;;;;;;;4.25;61.54;102649.38;5019314;28;20425;-68
2021/04/15 03:08:26;;;;;;;12.53;9.97;;;;;;;4.34;61.10;102656.84;5019582;28;20434;-68
2021/04/15 03:10:57;;;;;;;11.40;10.17;;;;;;;4.37;61.04;102663.09;5020610;28;20418;-68
2021/04/15 03:13:26;;;;;;;13.10;10.80;;;;;;;4.26;61.20;102651.16;5019287;28;20446;-69
2021/04/15 03:15:59;;;;;;;11.03;9.77;;;;;;;3.96;62.39;102653.47;5002610;28;20430;-69
2021/04/15 03:18:32;;;;;;;15.27;9.70;;;;;;;4.33;60.89;102657.63;5019802;28;20465;-69
2021/04/15 03:21:02;;;;;;;11.30;10.07;;;;;;;4.37;61.03;102651.88;5002652;28;20414;-68
2021/04/15 03:23:35;;;;;;;11.97;10.37;;;;;;;4.11;61.77;102652.72;5018611;28;20480;-68
2021/04/15 03:26:07;;;;;;;12.43;10.00;;;;;;;4.19;61.10;102656.72;5002569;28;20512;-69
2021/04/15 03:28:45;;;;;;;13.70;9.53;;;;;;;4.27;60.72;102649.50;5018984;28;20737;-68
2021/04/15 03:31:16;;;;;;;10.73;9.60;;;;;;;4.11;61.35;102657.88;5018624;28;20811;-69
2021/04/15 03:33:49;;;;;;;12.60;10.37;;;;;;;4.27;60.88;102660.69;5020205;28;20517;-68
2021/04/15 03:36:25;;;;;;;14.47;10.07;;;;;;;4.16;60.97;102656.53;5019507;28;20461;-68
2021/04/15 03:38:54;;;;;;;12.10;10.07;;;;;;;4.07;61.11;102659.34;5018346;28;20465;-68
2021/04/15 03:41:44;;;;;;;11.00;9.80;;;;;;;4.04;60.91;102662.63;5021853;28;20505;-69
2021/04/15 03:44:11;;;;;;;11.03;8.80;;;;;;;3.94;61.35;102669.66;5018604;28;20426;-69
2021/04/15 03:46:40;;;;;;;10.00;8.90;;;;;;;4.15;60.95;102665.03;5023401;28;20505;-69
2021/04/15 03:49:11;;;;;;;11.17;10.17;;;;;;;4.05;61.09;102660.97;5019227;28;20449;-68
2021/04/15 03:51:46;;;;;;;12.07;9.10;;;;;;;3.88;61.62;102664.97;5002370;28;20811;-69
2021/04/15 03:54:16;;;;;;;11.47;9.33;;;;;;;4.25;60.78;102656.22;5001531;28;20432;-68
2021/04/15 03:56:47;;;;;;;12.27;9.80;;;;;;;3.90;61.26;102660.81;5002215;28;20445;-68
2021/04/15 03:59:48;;;;;;;11.50;9.47;;;;;;;3.89;61.76;102661.59;5002143;28;20425;-68
2021/04/15 04:02:26;;;;;;;11.97;10.20;;;;;;;4.03;61.15;102663.44;5018630;28;20410;-69
2021/04/15 04:04:56;;;;;;;10.43;9.40;;;;;;;3.97;61.57;102665.59;5021378;28;20425;-69
2021/04/15 04:07:24;;;;;;;16.23;10.50;;;;;;;3.66;61.69;102663.50;5019279;28;20418;-68
2021/04/15 04:09:59;;;;;;;11.20;9.80;;;;;;;4.00;61.06;102665.78;5017654;28;20433;-68
2021/04/15 04:12:33;;;;;;;15.17;10.43;;;;;;;3.97;61.79;102675.03;5018092;28;20508;-68
2021/04/15 04:15:07;;;;;;;12.83;10.17;;;;;;;3.94;61.79;102673.13;5001376;28;20444;-68
2021/04/15 04:18:03;;;;;;;12.20;11.00;;;;;;;3.70;61.73;102675.81;5001557;28;20552;-69
2021/04/15 04:20:39;;;;;;;12.40;10.60;;;;;;;3.88;62.16;102670.13;5001622;28;20406;-69
2021/04/15 04:23:23;;;;;;;12.50;10.13;;;;;;;3.84;61.98;102681.94;5018362;28;20417;-69
2021/04/15 04:25:53;;;;;;;16.63;11.27;;;;;;;3.97;61.50;102678.50;5018105;28;20759;-68
2021/04/15 04:28:28;;;;;;;13.27;10.97;;;;;;;3.97;61.31;102675.91;5017135;28;20505;-69
2021/04/15 04:30:58;;;;;;;13.07;11.07;;;;;;;4.10;61.53;102680.25;5015638;28;20428;-67
2021/04/15 04:33:30;;;;;;;16.57;11.43;;;;;;;3.97;61.41;102681.06;5017605;28;20429;-68
2021/04/15 04:35:56;;;;;;;15.13;12.40;;;;;;;4.07;60.84;102681.72;5017840;28;20476;-69
2021/04/15 04:38:22;;;;;;;16.70;12.40;;;;;;;4.20;60.40;102684.31;4998753;28;20466;-69
2021/04/15 04:40:53;;;;;;;18.40;13.13;;;;;;;4.15;61.03;102686.56;4981979;28;20406;-69
2021/04/15 04:43:23;;;;;;;18.40;13.57;;;;;;;4.15;60.92;102683.13;4981537;28;20230;-68
2021/04/15 04:45:49;;;;;;;22.40;12.73;;;;;;;4.02;60.75;102687.47;4970090;28;20776;-68
2021/04/15 04:48:28;;;;;;;18.57;13.43;;;;;;;3.68;62.15;102692.88;5029453;28;20490;-69
2021/04/15 04:51:10;;;;;;;18.77;13.90;;;;;;;4.08;60.71;102686.97;5037201;28;20417;-70
2021/04/15 04:53:40;;;;;;;16.60;12.80;;;;;;;4.07;60.98;102697.19;5017184;28;20429;-70
2021/04/15 04:56:20;;;;;;;17.17;13.33;;;;;;;3.56;61.87;102697.19;5020640;28;20428;-69
2021/04/15 04:59:15;;;;;;;15.30;13.20;;;;;;;3.50;61.57;102701.91;5036998;28;20480;-68
2021/04/15 05:01:41;;;;;;;12.97;11.57;;;;;;;3.69;61.58;102707.59;5034482;28;20431;-69
2021/04/15 05:04:07;;;;;;;19.37;15.07;;;;;;;3.78;62.04;102703.84;5016661;28;20465;-69
2021/04/15 05:06:35;;;;;;;13.33;11.63;;;;;;;3.90;61.22;102703.78;5017493;28;20480;-69
2021/04/15 05:09:16;;;;;;;21.00;12.37;;;;;;;4.07;60.40;102712.69;5017957;28;20819;-69
2021/04/15 05:11:44;;;;;;;18.93;12.57;;;;;;;3.96;60.90;102718.00;5017931;28;20421;-69
2021/04/15 05:14:11;;;;;;;30.67;16.60;;;;;;;3.54;61.72;102714.22;5015837;28;20448;-68
2021/04/15 05:16:59;;;;;;;13.50;12.10;;;;;;;4.06;60.10;102714.38;5000178;28;20544;-67
2021/04/15 05:19:24;;;;;;;12.07;10.77;;;;;;;4.15;59.66;102721.84;5014365;28;20472;-69
2021/04/15 05:21:50;;;;;;;15.37;12.63;;;;;;;4.00;60.70;102721.69;5000993;28;20790;-68
2021/04/15 05:24:17;;;;;;;17.07;11.57;;;;;;;3.50;61.16;102725.13;5017200;28;20238;-68
2021/04/15 05:26:44;;;;;;;19.37;11.53;;;;;;;3.95;60.26;102723.06;5017680;28;20221;-69
2021/04/15 05:29:15;;;;;;;12.57;10.13;;;;;;;4.24;60.00;102737.06;5017767;28;20422;-69
2021/04/15 05:31:42;;;;;;;15.53;11.10;;;;;;;3.78;61.15;102734.81;4996206;28;20442;-68
2021/04/15 05:34:40;;;;;;;15.80;11.17;;;;;;;4.14;59.60;102728.69;5016531;28;20839;-68
2021/04/15 05:37:08;;;;;;;20.17;11.60;;;;;;;4.18;59.55;102738.44;4989488;28;20676;-68
2021/04/15 05:39:35;;;;;;;11.80;10.60;;;;;;;4.03;59.95;102732.22;5018678;28;20471;-69
2021/04/15 05:42:05;;;;;;;18.90;12.10;;;;;;;4.76;58.75;102739.63;5021463;28;20471;-69
2021/04/15 05:44:37;;;;;;;11.87;10.10;;;;;;;6.45;53.50;102725.06;5021730;28;20501;-69
2021/04/15 05:47:10;;;;;;;14.30;9.90;;;;;;;7.85;48.96;102721.59;5031981;28;20441;-69
2021/04/15 05:49:39;;;;;;;12.03;9.47;;;;;;;8.79;45.89;102723.75;5022215;28;20427;-70
2021/04/15 05:52:04;;;;;;;12.90;9.63;;;;;;;9.23;45.05;102718.94;5002260;28;20449;-68
2021/04/15 05:54:32;;;;;;;10.47;8.50;;;;;;;9.97;42.26;102719.66;5020127;28;20476;-68
2021/04/15 05:57:09;;;;;;;20.97;12.77;;;;;;;10.63;41.30;102708.56;5019808;28;20175;-69
2021/04/15 05:59:59;;;;;;;12.37;9.07;;;;;;;11.54;39.31;102706.00;5002980;28;20418;-69
2021/04/15 06:02:50;;;;;;;13.20;9.00;;;;;;;11.59;39.43;102707.06;5005470;28;20488;-69
2021/04/15 06:05:23;;;;;;;11.47;8.40;;;;;;;11.03;40.25;102710.19;4993425;28;20422;-69
2021/04/15 06:07:52;;;;;;;11.17;8.80;;;;;;;11.09;39.95;102714.75;5000942;28;20852;-69
2021/04/15 06:10:21;;;;;;;12.43;9.10;;;;;;;12.30;37.27;102709.63;5001259;28;20449;-68
2021/04/15 06:13:12;;;;;;;11.43;9.60;;;;;;;12.18;37.97;102715.31;5003068;28;20750;-68
2021/04/15 06:15:52;;;;;;;11.77;10.00;;;;;;;11.88;38.62;102721.22;5020917;28;20420;-69
2021/04/15 06:18:27;;;;;;;9.57;7.70;;;;;;;12.35;37.87;102720.22;5021277;28;20896;-69
2021/04/15 06:20:59;;;;;;;13.87;9.50;;;;;;;12.50;37.35;102717.25;5025150;28;20456;-69
2021/04/15 06:23:28;;;;;;;12.67;8.13;;;;;;;13.52;35.82;102715.19;5005824;28;20437;-69
2021/04/15 06:25:55;;;;;;;10.57;9.47;;;;;;;12.25;37.75;102721.66;5033785;28;20507;-70
2021/04/15 06:28:27;;;;;;;10.20;8.10;;;;;;;13.06;36.76;102720.81;5025968;28;20436;-70
2021/04/15 06:31:03;;;;;;;10.23;9.03;;;;;;;14.92;33.73;102711.03;5019491;28;20750;-69
2021/04/15 06:33:29;;;;;;;9.97;8.83;;;;;;;14.55;34.58;102712.75;5018282;28;20830;-68
2021/04/15 06:35:55;;;;;;;9.47;7.53;;;;;;;14.38;34.08;102712.31;5019621;28;20431;-69
2021/04/15 06:38:40;;;;;;;11.23;8.00;;;;;;;14.05;35.09;102722.81;5021310;28;20289;-70
2021/04/15 06:41:25;;;;;;;10.10;7.63;;;;;;;14.48;34.25;102709.09;5012195;28;20470;-70
2021/04/15 06:44:09;;;;;;;8.43;7.60;;;;;;;14.82;35.03;102724.81;5008617;28;20431;-69
2021/04/15 06:47:00;;;;;;;8.60;7.33;;;;;;;14.42;35.07;102724.69;5020112;28;20421;-68
2021/04/15 06:50:00;;;;;;;10.30;7.87;;;;;;;14.60;34.98;102715.47;5019603;28;20469;-69
2021/04/15 06:53:03;;;;;;;13.10;9.50;;;;;;;14.96;34.02;102722.50;5016126;28;20487;-69
2021/04/15 06:56:00;;;;;;;10.47;6.77;;;;;;;15.16;34.86;102728.22;5039568;28;20430;-68
2021/04/15 06:58:34;;;;;;;7.97;7.17;;;;;;;14.96;35.70;102727.75;5041241;28;20447;-70
2021/04/15 07:01:25;;;;;;;12.07;7.07;;;;;;;13.07;38.69;102734.78;5027778;28;20759;-70
2021/04/15 07:03:50;;;;;;;7.97;6.60;;;;;;;13.97;37.38;102730.47;5000523;28;20439;-69
2021/04/15 07:06:38;;;;;;;14.20;9.17;;;;;;;15.53;34.69;102720.25;5012100;28;20870;-69
2021/04/15 07:09:30;;;;;;;8.77;7.87;;;;;;;15.58;34.79;102714.22;5018151;28;20198;-70
2021/04/15 07:12:15;;;;;;;7.97;7.17;;;;;;;15.63;34.72;102711.69;5005484;28;20465;-70
2021/04/15 07:14:58;;;;;;;8.13;6.60;;;;;;;14.27;36.97;102714.66;5020626;28;20428;-69
2021/04/15 07:17:41;;;;;;;7.50;6.80;;;;;;;15.55;34.83;102713.28;5019363;28;20436;-69
2021/04/15 07:20:36;;;;;;;8.50;7.43;;;;;;;15.90;33.95;102713.09;5017874;28;20742;-69
2021/04/15 07:23:24;;;;;;;8.77;6.57;;;;;;;15.89;34.46;102712.25;5005165;28;20848;-70
2021/04/15 07:26:11;;;;;;;7.13;6.43;;;;;;;16.45;33.40;102710.59;5018377;28;20457;-69
2021/04/15 07:29:01;;;;;;;7.40;6.70;;;;;;;16.54;33.52;102712.50;5020534;28;20423;-68
2021/04/15 07:32:19;;;;;;;7.27;6.57;;;;;;;14.70;35.56;102720.16;5007606;28;20424;-68
2021/04/15 07:34:47;;;;;;;7.23;5.97;;;;;;;16.90;32.68;102719.22;4942731;29;20498;-69
2021/04/15 07:37:13;;;;;;;6.47;5.87;;;;;;;16.42;33.42;102716.69;5006810;28;20487;-67
2021/04/15 07:40:03;;;;;;;7.80;6.30;;;;;;;16.70;32.38;102718.88;4999695;28;20404;-69
2021/04/15 07:42:47;;;;;;;7.27;6.57;;;;;;;16.64;32.37;102722.31;5025510;28;20456;-69
2021/04/15 07:45:27;;;;;;;9.53;8.63;;;;;;;16.89;32.06;102718.38;5003599;28;20480;-70
2021/04/15 07:48:27;;;;;;;6.23;5.63;;;;;;;17.20;31.52;102713.53;5000571;28;20438;-69
2021/04/15 07:51:10;;;;;;;7.33;5.40;;;;;;;17.94;30.64;102714.47;5017860;28;20480;-70
2021/04/15 07:53:53;;;;;;;6.67;6.07;;;;;;;17.24;31.29;102720.63;5018838;28;20439;-70
2021/04/15 07:56:41;;;;;;;7.00;5.60;;;;;;;18.81;28.86;102713.44;5002247;28;20815;-71
2021/04/15 07:59:46;;;;;;;6.67;6.00;;;;;;;17.88;30.56;102719.63;5000752;28;20455;-71
2021/04/15 08:02:28;;;;;;;5.93;5.33;;;;;;;18.38;29.31;102714.88;5015675;28;20449;-71
2021/04/15 08:05:12;;;;;;;6.53;5.97;;;;;;;19.09;28.62;102711.03;5018567;28;20795;-71
2021/04/15 08:08:17;;;;;;;5.90;5.40;;;;;;;18.35;28.43;102707.81;5015290;28;20444;-71
2021/04/15 08:11:15;;;;;;;5.90;4.33;;;;;;;19.21;27.03;102714.59;5001102;28;20842;-70
2021/04/15 08:14:13;;;;;;;4.80;4.40;;;;;;;19.42;26.87;102709.41;5011929;28;20549;-70
2021/04/15 08:16:57;;;;;;;5.80;4.17;;;;;;;14.53;32.55;102737.19;5017133;28;20421;-70
2021/04/15 08:19:59;;;;;;;4.07;3.67;;;;;;;19.02;26.90;102717.13;4998583;28;20423;-72
2021/04/15 08:22:59;;;;;;;4.30;3.90;;;;;;;16.41;31.00;102719.31;5009362;28;20468;-71
2021/04/15 08:25:57;;;;;;;5.10;4.13;;;;;;;19.32;27.21;102711.13;5013730;28;20489;-71
2021/04/15 08:28:48;;;;;;;4.90;4.00;;;;;;;18.03;28.20;102718.06;5026376;28;20539;-71
2021/04/15 08:31:22;;;;;;;3.90;3.50;;;;;;;19.41;25.16;102712.06;5029423;28;20488;-72
2021/04/15 08:34:11;;;;;;;4.07;3.67;;;;;;;18.85;25.13;102714.38;5001597;28;20448;-71
2021/04/15 08:36:54;;;;;;;5.70;4.30;;;;;;;18.20;26.40;102721.75;5014674;28;20700;-70
2021/04/15 08:39:25;;;;;;;3.90;3.60;;;;;;;17.56;27.18;102717.50;5014543;28;20445;-70
2021/04/15 08:42:09;;;;;;;5.10;3.80;;;;;;;19.53;24.67;102712.97;5017786;28;20698;-70
2021/04/15 08:44:47;;;;;;;3.73;3.43;;;;;;;19.11;23.71;102713.66;5016585;28;20431;-70
2021/04/15 08:47:30;;;;;;;3.30;3.00;;;;;;;17.06;27.17;102721.25;5031313;28;20416;-68
2021/04/15 08:50:38;;;;;;;5.30;3.70;;;;;;;18.92;23.42;102713.56;5017405;28;20445;-69
2021/04/15 08:53:21;;;;;;;3.80;3.50;;;;;;;18.10;24.57;102710.19;5017516;28;20452;-71
2021/04/15 08:55:50;;;;;;;3.80;3.50;;;;;;;17.72;24.54;102715.94;5012246;28;20491;-70
2021/04/15 08:58:49;;;;;;;4.07;3.40;;;;;;;19.00;23.41;102701.25;5016296;28;20485;-70
2021/04/15 09:01:21;;;;;;;3.53;3.23;;;;;;;19.56;24.10;102700.66;5012499;28;20464;-70
2021/04/15 09:04:01;;;;;;;4.17;3.77;;;;;;;20.20;21.20;102702.56;5013518;28;20446;-70
2021/04/15 09:06:39;;;;;;;3.00;2.77;;;;;;;19.29;20.45;102704.94;5012933;28;20437;-70
2021/04/15 09:09:04;;;;;;;3.50;3.20;;;;;;;18.02;21.48;102703.97;5024655;28;20413;-70
2021/04/15 09:11:33;;;;;;;4.07;3.70;;;;;;;17.29;23.71;102707.50;5002996;28;20464;-70
2021/04/15 09:14:00;;;;;;;4.23;3.00;;;;;;;18.83;21.61;102697.59;5016439;28;20178;-71
2021/04/15 09:16:35;;;;;;;3.90;3.60;;;;;;;17.92;23.66;102704.75;5037049;28;20495;-70
2021/04/15 09:19:30;;;;;;;5.40;4.90;;;;;;;20.45;19.45;102692.88;5019218;28;20739;-70
2021/04/15 09:22:09;;;;;;;3.60;3.30;;;;;;;20.52;18.93;102697.28;5011092;28;20451;-70
2021/04/15 09:24:53;;;;;;;11.30;4.37;;;;;;;19.82;20.31;102691.06;5016050;28;20469;-71
2021/04/15 09:27:45;;;;;;;4.50;3.60;;;;;;;18.35;21.98;102694.63;5001871;28;20422;-69
2021/04/15 09:30:21;;;;;;;3.90;3.60;;;;;;;19.82;21.12;102691.06;5000471;28;20431;-70
2021/04/15 09:33:24;;;;;;;8.73;3.60;;;;;;;18.84;21.03;102687.03;5010770;28;20709;-71
2021/04/15 09:36:05;;;;;;;5.60;3.20;;;;;;;20.22;19.62;102678.75;5019465;28;20878;-69
2021/04/15 09:38:39;;;;;;;3.13;2.83;;;;;;;18.64;20.89;102688.66;4988052;28;20711;-68
2021/04/15 09:41:36;;;;;;;7.13;3.37;;;;;;;19.79;20.57;102677.75;5018415;28;20459;-68
2021/04/15 09:44:38;;;;;;;3.00;2.70;;;;;;;18.68;20.33;102693.09;5000106;28;20463;-68
2021/04/15 09:47:09;;;;;;;3.40;3.07;;;;;;;20.35;21.77;102672.59;5016635;28;20429;-69
2021/04/15 09:49:37;;;;;;;3.60;3.30;;;;;;;20.87;19.45;102671.63;5029479;28;20427;-69
2021/04/15 09:52:19;;;;;;;3.83;3.47;;;;;;;18.34;21.70;102672.59;5025668;28;20441;-70
2021/04/15 09:55:16;;;;;;;5.23;4.23;;;;;;;17.39;22.93;102676.88;4995483;28;20426;-69
2021/04/15 09:58:24;;;;;;;3.40;3.20;;;;;;;19.68;18.72;102675.09;5013789;28;20477;-70
2021/04/15 10:00:52;;;;;;;3.33;3.00;;;;;;;17.50;20.11;102667.34;5010229;28;20438;-68
2021/04/15 10:03:54;;;;;;;3.33;3.03;;;;;;;16.06;23.15;102678.38;4999639;28;20549;-68
2021/04/15 10:06:28;;;;;;;4.83;4.10;;;;;;;15.66;24.39;102669.69;5039829;28;20424;-68
2021/04/15 10:08:59;;;;;;;3.73;3.00;;;;;;;14.20;25.39;102675.13;5023337;28;20666;-68
2021/04/15 10:11:38;;;;;;;2.87;2.57;;;;;;;13.96;24.12;102685.03;5022838;28;20409;-68
2021/04/15 10:14:32;;;;;;;3.40;2.70;;;;;;;14.85;23.24;102677.59;5019697;28;20806;-69
2021/04/15 10:17:06;;;;;;;3.17;2.50;;;;;;;14.54;23.45;102683.84;5020389;28;20396;-69
2021/04/15 10:19:55;;;;;;;3.37;3.07;;;;;;;13.68;23.28;102680.75;5019193;28;20473;-69
2021/04/15 10:22:39;;;;;;;4.60;3.80;;;;;;;13.54;25.15;102676.84;5019888;28;20456;-69
2021/04/15 10:25:14;;;;;;;3.77;3.00;;;;;;;14.67;23.22;102675.44;5018038;28;20465;-68
2021/04/15 10:28:04;;;;;;;3.67;2.93;;;;;;;16.27;21.77;102667.31;5019569;28;20422;-69
2021/04/15 10:30:54;;;;;;;3.17;2.97;;;;;;;15.58;22.06;102671.28;5016907;28;20701;-68
2021/04/15 10:33:50;;;;;;;3.30;2.70;;;;;;;12.54;26.52;102678.19;5020540;28;20722;-70
2021/04/15 10:36:35;;;;;;;3.50;2.50;;;;;;;13.78;25.66;102674.91;5015380;28;20445;-71
2021/04/15 10:39:17;;;;;;;4.53;2.83;;;;;;;14.21;25.93;102672.53;5019527;28;20444;-68
2021/04/15 10:42:01;;;;;;;4.00;3.40;;;;;;;14.94;24.81;102666.44;5020047;28;20400;-67
2021/04/15 10:44:36;;;;;;;4.20;3.30;;;;;;;13.83;27.94;102664.56;5007046;28;20413;-67
2021/04/15 10:47:28;;;;;;;3.93;3.50;;;;;;;13.06;29.45;102671.06;5018698;28;20498;-68
2021/04/15 10:50:00;;;;;;;3.93;3.53;;;;;;;13.17;29.54;102675.75;5021686;28;20414;-69
2021/04/15 10:52:44;;;;;;;8.47;3.47;;;;;;;13.55;28.63;102674.25;5018151;28;20416;-67
2021/04/15 10:55:15;;;;;;;4.57;3.60;;;;;;;13.44;29.83;102676.56;5000181;28;20460;-68
2021/04/15 10:57:41;;;;;;;3.73;3.43;;;;;;;12.86;31.11;102670.44;4999965;28;20459;-68
2021/04/15 11:00:45;;;;;;;3.70;3.40;;;;;;;13.81;29.45;102667.13;5000294;28;20503;-68
2021/04/15 11:03:19;;;;;;;3.80;3.20;;;;;;;13.80;29.02;102667.97;4968259;28;20195;-69
2021/04/15 11:05:46;;;;;;;3.47;3.17;;;;;;;12.94;30.81;102676.81;4965786;28;20428;-68
2021/04/15 11:08:26;;;;;;;5.03;3.87;;;;;;;13.14;30.33;102673.91;4981175;28;20706;-67
2021/04/15 11:11:28;;;;;;;6.33;5.70;;;;;;;12.74;32.08;102686.63;4996411;28;20445;-69
2021/04/15 11:14:04;;;;;;;4.73;4.10;;;;;;;12.77;31.71;102678.00;4957374;29;20478;-67
2021/04/15 11:16:30;;;;;;;4.00;3.10;;;;;;;12.57;32.11;102673.03;5012679;28;20429;-67
2021/04/15 11:19:09;;;;;;;4.00;3.70;;;;;;;12.88;30.98;102668.78;5020765;28;20552;-67
2021/04/15 11:21:36;;;;;;;4.20;3.30;;;;;;;12.93;31.53;102664.53;5038501;28;20740;-66
2021/04/15 11:24:25;;;;;;;7.23;3.70;;;;;;;12.96;29.44;102661.13;5024718;28;20457;-70
2021/04/15 11:26:50;;;;;;;6.97;3.47;;;;;;;13.14;29.12;102661.69;5039360;28;20732;-69
2021/04/15 11:29:29;;;;;;;3.63;3.33;;;;;;;12.50;29.11;102660.56;5021097;28;20446;-69
2021/04/15 11:31:55;;;;;;;3.63;3.30;;;;;;;12.51;29.46;102664.97;5018539;28;20269;-70
2021/04/15 11:34:24;;;;;;;13.73;5.87;;;;;;;12.12;31.28;102663.72;5021981;28;20410;-70
2021/04/15 11:36:55;;;;;;;8.70;4.20;;;;;;;12.40;32.05;102662.00;5022304;28;20433;-70
2021/04/15 11:39:23;;;;;;;10.03;4.67;;;;;;;11.89;31.66;102655.03;5022243;28;20458;-69
2021/04/15 11:42:05;;;;;;;7.63;4.33;;;;;;;12.38;30.51;102666.31;5020169;28;20418;-68
2021/04/15 11:44:32;;;;;;;4.33;3.70;;;;;;;12.97;28.93;102658.59;5007013;28;20446;-69
2021/04/15 11:47:13;;;;;;;7.80;3.77;;;;;;;13.39;26.83;102657.22;5031751;28;20437;-68
2021/04/15 11:49:43;;;;;;;3.40;3.10;;;;;;;13.44;27.82;102654.75;5024592;28;20451;-69
2021/04/15 11:52:12;;;;;;;3.87;2.80;;;;;;;13.13;24.56;102656.44;5033727;28;20818;-69
2021/04/15 11:54:48;;;;;;;3.60;2.73;;;;;;;14.77;23.04;102643.28;5018769;28;20476;-68
2021/04/15 11:57:20;;;;;;;5.63;3.37;;;;;;;15.15;22.22;102643.28;5020155;28;20401;-69
2021/04/15 12:00:01;;;;;;;3.30;3.00;;;;;;;14.03;25.86;102644.13;5006206;28;20745;-69
2021/04/15 12:02:43;;;;;;;3.47;3.17;;;;;;;13.61;26.86;102642.09;5017330;28;20445;-69
2021/04/15 12:05:32;;;;;;;4.73;3.50;;;;;;;13.75;27.22;102643.38;5009163;28;20422;-69
2021/04/15 12:08:23;;;;;;;5.03;3.70;;;;;;;13.58;27.16;102648.13;5025661;28;20432;-69